createdAt,value
2022-09-10T00:00:48.680Z,97960.22
2022-09-10T00:03:14.880Z,97974.25
2022-09-10T00:05:41.121Z,97971.84
2022-09-10T00:08:07.235Z,97965.88
2022-09-10T00:10:33.430Z,97966.97
2022-09-10T00:12:59.549Z,97965.16
2022-09-10T00:15:25.696Z,97961.66
2022-09-10T00:17:51.878Z,97957.31
2022-09-10T00:20:18.096Z,97958.31
2022-09-10T00:22:44.195Z,97948.91
2022-09-10T00:25:10.356Z,97953.44
2022-09-10T00:27:36.757Z,97949.03
2022-09-10T00:30:02.837Z,97956.28
2022-09-10T00:32:28.916Z,97951.38
2022-09-10T00:34:55.025Z,97952.81
2022-09-10T00:37:21.119Z,97957.97
2022-09-10T00:39:47.473Z,97959.59
2022-09-10T00:42:13.589Z,97959.59
2022-09-10T00:44:39.739Z,97961.06
2022-09-10T00:47:05.837Z,97957.97
2022-09-10T00:49:31.946Z,97950.56
2022-09-10T00:51:58.025Z,97951.63
2022-09-10T00:54:24.115Z,97958.03
2022-09-10T00:56:50.225Z,97939.28
2022-09-10T00:59:16.335Z,97943.56
2022-09-10T01:01:42.508Z,97947.28
2022-09-10T01:04:08.645Z,97937.19
2022-09-10T01:06:34.721Z,97950.63
2022-09-10T01:09:00.828Z,97951.06
2022-09-10T01:11:26.981Z,97956.81
2022-09-10T01:13:53.086Z,97951.84
2022-09-10T01:16:19.193Z,97941.47
2022-09-10T01:18:45.378Z,97937.59
2022-09-10T01:21:11.476Z,97943.72
2022-09-10T01:23:37.580Z,97935.91
2022-09-10T01:26:03.681Z,97940.25
2022-09-10T01:28:29.794Z,97941.06
2022-09-10T01:30:55.874Z,97945.38
2022-09-10T01:33:22.272Z,97949.31
2022-09-10T01:35:48.356Z,97946.66
2022-09-10T01:38:14.437Z,97949.13
2022-09-10T01:40:40.537Z,97960.00
2022-09-10T01:43:06.635Z,97953.19
2022-09-10T01:45:32.778Z,97945.16
2022-09-10T01:47:58.892Z,97946.66
2022-09-10T01:50:24.988Z,97945.81
2022-09-10T01:52:51.086Z,97950.94
2022-09-10T01:55:17.195Z,97943.75
2022-09-10T01:57:43.290Z,97946.38
2022-09-10T02:00:11.038Z,97949.50
2022-09-10T02:02:37.201Z,97952.94
2022-09-10T02:05:03.302Z,97954.41
2022-09-10T02:07:29.587Z,97944.94
2022-09-10T02:09:55.700Z,97952.53
2022-09-10T02:12:21.798Z,97952.53
2022-09-10T02:14:47.878Z,97954.19
2022-09-10T02:17:13.991Z,97950.91
2022-09-10T02:19:40.077Z,97956.06
2022-09-10T02:22:06.153Z,97952.34
2022-09-10T02:24:32.256Z,97945.16
2022-09-10T02:26:58.329Z,97948.03
2022-09-10T02:29:24.422Z,97945.38
2022-09-10T02:31:50.594Z,97951.56
2022-09-10T02:34:16.715Z,97942.72
2022-09-10T02:36:42.796Z,97956.72
2022-09-10T02:39:08.925Z,97942.94
2022-09-10T02:41:35.130Z,97937.59
2022-09-10T02:44:01.250Z,97945.56
2022-09-10T02:46:27.359Z,97943.34
2022-09-10T02:48:53.443Z,97939.47
2022-09-10T02:51:19.537Z,97947.28
2022-09-10T02:53:45.651Z,97959.38
2022-09-10T02:56:11.737Z,97957.97
2022-09-10T02:58:37.826Z,97947.47
2022-09-10T03:01:03.994Z,97947.44
2022-09-10T03:03:30.116Z,97946.81
2022-09-10T03:05:56.211Z,97946.03
2022-09-10T03:08:22.327Z,97948.47
2022-09-10T03:10:48.418Z,97943.56
2022-09-10T03:13:14.504Z,97951.13
2022-09-10T03:15:40.614Z,97958.34
2022-09-10T03:18:06.707Z,97948.09
2022-09-10T03:20:32.789Z,97948.22
2022-09-10T03:22:58.898Z,97945.78
2022-09-10T03:25:24.986Z,97945.25
2022-09-10T03:27:51.068Z,97938.66
2022-09-10T03:30:17.165Z,97942.78
2022-09-10T03:32:43.256Z,97942.59
2022-09-10T03:35:09.357Z,97950.16
2022-09-10T03:37:35.887Z,97945.44
2022-09-10T03:40:02.060Z,97945.41
2022-09-10T03:42:28.192Z,97939.66
2022-09-10T03:44:54.594Z,97945.41
2022-09-10T03:47:20.682Z,97947.03
2022-09-10T03:49:46.786Z,97943.75
2022-09-10T03:52:12.930Z,97948.69
2022-09-10T03:54:39.033Z,97947.03
2022-09-10T03:57:05.128Z,97946.03
2022-09-10T03:59:31.252Z,97956.53
2022-09-10T04:01:57.371Z,97955.25
2022-09-10T04:04:23.518Z,97953.00
2022-09-10T04:06:49.703Z,97951.97
2022-09-10T04:09:15.802Z,97956.06
2022-09-10T04:11:41.880Z,97954.41
2022-09-10T04:14:07.990Z,97948.44
2022-09-10T04:16:34.164Z,97958.31
2022-09-10T04:19:00.607Z,97953.78
2022-09-10T04:21:26.714Z,97957.69
2022-09-10T04:23:52.819Z,97963.50
2022-09-10T04:26:18.911Z,97963.28
2022-09-10T04:28:45.016Z,97954.88
2022-09-10T04:31:11.122Z,97963.69
2022-09-10T04:33:37.211Z,97947.84
2022-09-10T04:36:03.318Z,97954.25
2022-09-10T04:38:29.481Z,97959.03
2022-09-10T04:40:55.619Z,97959.59
2022-09-10T04:43:22.079Z,97959.84
2022-09-10T04:45:48.220Z,97961.69
2022-09-10T04:48:14.380Z,97961.69
2022-09-10T04:50:54.026Z,97960.25
2022-09-10T04:53:26.553Z,97967.59
2022-09-10T04:55:52.657Z,97965.38
2022-09-10T04:58:18.762Z,97964.16
2022-09-10T05:00:44.873Z,97961.28
2022-09-10T05:03:11.007Z,97970.94
2022-09-10T05:05:37.084Z,97971.69
2022-09-10T05:08:03.173Z,97971.31
2022-09-10T05:10:29.811Z,97967.22
2022-09-10T05:12:55.973Z,97972.31
2022-09-10T05:15:22.052Z,97971.31
2022-09-10T05:17:48.169Z,97969.19
2022-09-10T05:20:14.257Z,97973.09
2022-09-10T05:22:40.829Z,97972.72
2022-09-10T05:25:07.173Z,97971.41
2022-09-10T05:27:33.272Z,97971.19
2022-09-10T05:29:59.368Z,97973.59
2022-09-10T05:32:25.481Z,97967.88
2022-09-10T05:34:51.568Z,97968.50
2022-09-10T05:37:17.684Z,97970.31
2022-09-10T05:39:43.831Z,97979.75
2022-09-10T05:42:09.953Z,97973.44
2022-09-10T05:44:36.061Z,97975.66
2022-09-10T05:47:02.467Z,97987.19
2022-09-10T05:49:28.560Z,97983.88
2022-09-10T05:51:54.662Z,97984.69
2022-09-10T05:54:20.759Z,97992.47
2022-09-10T05:56:46.836Z,97984.25
2022-09-10T05:59:12.936Z,97994.13
2022-09-10T06:01:39.049Z,97994.75
2022-09-10T06:04:05.164Z,97998.25
2022-09-10T06:06:31.245Z,97993.28
2022-09-10T06:08:57.390Z,97995.31
2022-09-10T06:11:23.520Z,97992.53
2022-09-10T06:13:49.689Z,97997.06
2022-09-10T06:16:16.377Z,98006.28
2022-09-10T06:18:42.476Z,98011.78
2022-09-10T06:21:08.588Z,98003.38
2022-09-10T06:23:34.711Z,98015.91
2022-09-10T06:26:00.854Z,98013.47
2022-09-10T06:28:26.966Z,98016.75
2022-09-10T06:30:53.143Z,98018.00
2022-09-10T06:33:19.313Z,98034.06
2022-09-10T06:35:45.396Z,98016.78
2022-09-10T06:38:11.510Z,98027.44
2022-09-10T06:40:37.625Z,98026.63
2022-09-10T06:43:03.756Z,98032.75
2022-09-10T06:45:29.918Z,98024.56
2022-09-10T06:48:37.234Z,98031.56
2022-09-10T06:50:42.169Z,98026.41
2022-09-10T06:53:08.253Z,98024.53
2022-09-10T06:55:34.336Z,98032.31
2022-09-10T06:58:00.440Z,98027.44
2022-09-10T07:00:26.538Z,98031.53
2022-09-10T07:02:52.625Z,98026.34
2022-09-10T07:05:18.729Z,98036.63
2022-09-10T07:07:44.838Z,98032.72
2022-09-10T07:10:10.938Z,98032.72
2022-09-10T07:12:37.054Z,98031.25
2022-09-10T07:15:03.139Z,98030.00
2022-09-10T07:17:32.005Z,98032.44
2022-09-10T07:19:58.293Z,98038.81
2022-09-10T07:22:24.382Z,98035.72
2022-09-10T07:24:50.474Z,98039.44
2022-09-10T07:27:16.578Z,98037.75
2022-09-10T07:29:42.670Z,98041.28
2022-09-10T07:32:12.890Z,98041.75
2022-09-10T07:34:39.742Z,98040.25
2022-09-10T07:37:05.829Z,98039.63
2022-09-10T07:39:31.966Z,98043.53
2022-09-10T07:41:58.120Z,98047.41
2022-09-10T07:44:24.196Z,98050.91
2022-09-10T07:46:50.273Z,98049.06
2022-09-10T07:49:16.660Z,98055.00
2022-09-10T07:51:42.766Z,98062.91
2022-09-10T07:54:08.853Z,98060.81
2022-09-10T07:56:35.456Z,98062.28
2022-09-10T07:59:01.548Z,98063.63
2022-09-10T08:01:27.720Z,98059.91
2022-09-10T08:03:53.842Z,98054.56
2022-09-10T08:06:19.930Z,98062.03
2022-09-10T08:08:46.021Z,98060.09
2022-09-10T08:11:12.292Z,98069.69
2022-09-10T08:13:38.404Z,98066.41
2022-09-10T08:16:04.522Z,98067.34
2022-09-10T08:18:30.973Z,98075.28
2022-09-10T08:20:57.090Z,98075.88
2022-09-10T08:23:23.185Z,98073.25
2022-09-10T08:25:49.305Z,98080.03
2022-09-10T08:28:15.409Z,98082.78
2022-09-10T08:30:41.538Z,98084.03
2022-09-10T08:33:07.694Z,98084.28
2022-09-10T08:35:33.786Z,98081.66
2022-09-10T08:37:59.870Z,98088.78
2022-09-10T08:40:26.064Z,98077.34
2022-09-10T08:42:52.188Z,98076.13
2022-09-10T08:45:18.268Z,98079.34
2022-09-10T08:47:44.362Z,98094.13
2022-09-10T08:50:10.452Z,98085.19
2022-09-10T08:52:36.538Z,98088.22
2022-09-10T08:55:03.156Z,98083.75
2022-09-10T08:57:29.247Z,98084.41
2022-09-10T08:59:55.437Z,98089.78
2022-09-10T09:02:44.881Z,98091.03
2022-09-10T09:05:07.658Z,98088.59
2022-09-10T09:07:33.790Z,98094.75
2022-09-10T09:09:59.882Z,98092.75
2022-09-10T09:12:25.970Z,98101.22
2022-09-10T09:14:52.131Z,98095.72
2022-09-10T09:17:18.246Z,98100.03
2022-09-10T09:19:44.375Z,98099.44
2022-09-10T09:22:10.540Z,98096.63
2022-09-10T09:24:36.627Z,98093.78
2022-09-10T09:27:02.721Z,98096.91
2022-09-10T09:29:28.819Z,98089.91
2022-09-10T09:31:54.905Z,98093.19
2022-09-10T09:34:20.993Z,98093.34
2022-09-10T09:36:47.099Z,98097.56
2022-09-10T09:39:13.194Z,98094.22
2022-09-10T09:41:39.298Z,98094.41
2022-09-10T09:44:05.412Z,98092.28
2022-09-10T09:46:31.532Z,98096.16
2022-09-10T09:48:57.684Z,98085.63
2022-09-10T09:51:23.851Z,98087.44
2022-09-10T09:54:01.027Z,98093.59
2022-09-10T09:56:36.687Z,98092.63
2022-09-10T09:59:02.795Z,98091.09
2022-09-10T10:01:29.005Z,98095.00
2022-09-10T10:03:55.164Z,98098.72
2022-09-10T10:06:21.247Z,98099.22
2022-09-10T10:08:47.342Z,98086.09
2022-09-10T10:11:13.531Z,98088.16
2022-09-10T10:13:39.655Z,98092.91
2022-09-10T10:16:05.798Z,98085.59
2022-09-10T10:18:32.035Z,98081.50
2022-09-10T10:20:58.141Z,98084.75
2022-09-10T10:23:27.073Z,98086.84
2022-09-10T10:25:55.312Z,98090.66
2022-09-10T10:28:21.393Z,98080.88
2022-09-10T10:30:49.650Z,98085.50
2022-09-10T10:33:15.782Z,98081.97
2022-09-10T10:35:41.868Z,98080.84
2022-09-10T10:38:07.962Z,98075.94
2022-09-10T10:40:34.073Z,98075.97
2022-09-10T10:43:00.157Z,98074.53
2022-09-10T10:45:26.246Z,98063.22
2022-09-10T10:47:52.349Z,98069.50
2022-09-10T10:50:18.444Z,98066.22
2022-09-10T10:52:44.534Z,98064.69
2022-09-10T10:55:10.637Z,98062.56
2022-09-10T10:57:36.716Z,98062.41
2022-09-10T11:00:02.800Z,98054.69
2022-09-10T11:02:28.973Z,98053.25
2022-09-10T11:04:55.129Z,98056.25
2022-09-10T11:07:21.205Z,98057.38
2022-09-10T11:09:47.314Z,98050.84
2022-09-10T11:12:13.408Z,98059.63
2022-09-10T11:14:39.499Z,98051.28
2022-09-10T11:17:05.619Z,98047.88
2022-09-10T11:19:31.756Z,98053.22
2022-09-10T11:21:57.850Z,98050.88
2022-09-10T11:24:24.024Z,98055.22
2022-09-10T11:26:50.213Z,98059.63
2022-09-10T11:29:16.373Z,98058.78
2022-09-10T11:31:42.522Z,98063.63
2022-09-10T11:34:08.632Z,98061.91
2022-09-10T11:36:34.763Z,98053.47
2022-09-10T11:39:00.882Z,98047.94
2022-09-10T11:41:26.979Z,98047.09
2022-09-10T11:43:53.172Z,98051.41
2022-09-10T11:46:19.319Z,98049.94
2022-09-10T11:48:45.459Z,98054.19
2022-09-10T11:51:11.565Z,98054.81
2022-09-10T11:53:37.693Z,98052.84
2022-09-10T11:56:03.784Z,98055.88
2022-09-10T11:58:29.873Z,98059.41
2022-09-10T12:00:55.986Z,98042.63
2022-09-10T12:03:22.125Z,98039.94
2022-09-10T12:05:48.262Z,98043.28
2022-09-10T12:08:14.417Z,98038.53
2022-09-10T12:10:40.509Z,98028.19
2022-09-10T12:13:06.599Z,98033.13
2022-09-10T12:15:32.723Z,98036.47
2022-09-10T12:17:58.831Z,98029.69
2022-09-10T12:20:24.930Z,98033.50
2022-09-10T12:22:51.047Z,98045.94
2022-09-10T12:25:17.133Z,98050.41
2022-09-10T12:27:43.319Z,98089.25
2022-09-10T12:30:09.422Z,98072.56
2022-09-10T12:32:35.515Z,98071.06
2022-09-10T12:35:01.612Z,98064.84
2022-09-10T12:37:27.737Z,98061.91
2022-09-10T12:39:53.882Z,98058.47
2022-09-10T12:42:20.016Z,98052.16
2022-09-10T12:44:46.122Z,98054.50
2022-09-10T12:47:12.216Z,98053.16
2022-09-10T12:49:38.340Z,98059.59
2022-09-10T12:52:04.461Z,98063.06
2022-09-10T12:54:30.555Z,98062.59
2022-09-10T12:56:56.637Z,98065.22
2022-09-10T12:59:23.225Z,98069.97
2022-09-10T13:01:49.391Z,98070.34
2022-09-10T13:04:15.569Z,98061.19
2022-09-10T13:06:41.669Z,98084.84
2022-09-10T13:09:07.769Z,98075.59
2022-09-10T13:11:34.002Z,98073.53
2022-09-10T13:14:00.488Z,98066.72
2022-09-10T13:16:26.569Z,98067.59
2022-09-10T13:18:56.773Z,98061.66
2022-09-10T13:21:23.218Z,98065.91
2022-09-10T13:23:49.379Z,98066.69
2022-09-10T13:26:15.499Z,98066.69
2022-09-10T13:28:41.907Z,98057.00
2022-09-10T13:31:08.078Z,98064.00
2022-09-10T13:33:34.266Z,98051.25
2022-09-10T13:36:00.383Z,98063.16
2022-09-10T13:38:26.467Z,98061.56
2022-09-10T13:40:52.567Z,98061.91
2022-09-10T13:43:18.692Z,98065.84
2022-09-10T13:45:44.800Z,98059.69
2022-09-10T13:48:10.884Z,98058.69
2022-09-10T13:50:36.997Z,98052.13
2022-09-10T13:53:03.086Z,98059.31
2022-09-10T13:55:29.186Z,98051.72
2022-09-10T13:57:55.305Z,98047.59
2022-09-10T14:00:21.388Z,98045.53
2022-09-10T14:02:47.577Z,98041.22
2022-09-10T14:05:13.832Z,98045.94
2022-09-10T14:07:39.912Z,98038.94
2022-09-10T14:10:06.011Z,98049.25
2022-09-10T14:12:32.130Z,98053.75
2022-09-10T14:14:58.392Z,98044.91
2022-09-10T14:17:24.505Z,98045.50
2022-09-10T14:19:50.615Z,98033.16
2022-09-10T14:22:16.722Z,98031.97
2022-09-10T14:24:42.809Z,98053.75
2022-09-10T14:27:08.915Z,98050.66
2022-09-10T14:29:35.001Z,98035.19
2022-09-10T14:32:01.097Z,98025.97
2022-09-10T14:34:27.212Z,98021.28
2022-09-10T14:36:53.336Z,98024.53
2022-09-10T14:39:19.616Z,98019.63
2022-09-10T14:41:45.733Z,98023.69
2022-09-10T14:44:11.819Z,98028.66
2022-09-10T14:46:38.008Z,98017.91
2022-09-10T14:49:04.105Z,98012.63
2022-09-10T14:51:30.184Z,98008.13
2022-09-10T14:53:56.279Z,98015.03
2022-09-10T14:56:22.401Z,98016.06
2022-09-10T14:58:48.492Z,98026.19
2022-09-10T15:01:14.638Z,98030.91
2022-09-10T15:03:40.803Z,98023.28
2022-09-10T15:06:06.962Z,98036.84
2022-09-10T15:08:33.055Z,98040.16
2022-09-10T15:10:59.214Z,98040.16
2022-09-10T15:13:25.313Z,98041.34
2022-09-10T15:15:51.440Z,98052.38
2022-09-10T15:18:17.858Z,98052.44
2022-09-10T15:20:43.965Z,98058.63
2022-09-10T15:23:10.102Z,98058.25
2022-09-10T15:25:38.666Z,98055.34
2022-09-10T15:28:04.854Z,98057.97
2022-09-10T15:30:30.933Z,98060.97
2022-09-10T15:32:57.137Z,98054.03
2022-09-10T15:35:23.236Z,98050.75
2022-09-10T15:37:49.573Z,98052.94
2022-09-10T15:40:15.703Z,98051.09
2022-09-10T15:42:41.856Z,98054.22
2022-09-10T15:45:08.010Z,98045.47
2022-09-10T15:47:34.125Z,98045.69
2022-09-10T15:50:00.247Z,98053.34
2022-09-10T15:52:26.357Z,98053.91
2022-09-10T15:54:52.462Z,98052.28
2022-09-10T15:57:18.661Z,98045.88
2022-09-10T15:59:44.801Z,98042.19
2022-09-10T16:02:10.940Z,98044.88
2022-09-10T16:04:40.265Z,98046.06
2022-09-10T16:07:08.605Z,98045.41
2022-09-10T16:09:34.736Z,98041.91
2022-09-10T16:12:00.853Z,98045.22
2022-09-10T16:14:26.942Z,98046.81
2022-09-10T16:16:53.041Z,98045.09
2022-09-10T16:19:19.130Z,98060.38
2022-09-10T16:21:45.265Z,98055.81
2022-09-10T16:24:11.908Z,98055.63
2022-09-10T16:26:38.043Z,98055.75
2022-09-10T16:29:04.181Z,98068.97
2022-09-10T16:31:30.436Z,98076.72
2022-09-10T16:33:56.576Z,98079.22
2022-09-10T16:36:22.686Z,98086.31
2022-09-10T16:38:48.812Z,98087.34
2022-09-10T16:41:14.898Z,98086.63
2022-09-10T16:43:41.020Z,98088.94
2022-09-10T16:46:07.177Z,98089.84
2022-09-10T16:48:33.328Z,98096.44
2022-09-10T16:50:59.409Z,98093.25
2022-09-10T16:53:25.531Z,98089.94
2022-09-10T16:55:51.627Z,98093.66
2022-09-10T16:58:17.734Z,98104.34
2022-09-10T17:00:43.840Z,98100.63
2022-09-10T17:03:09.947Z,98101.03
2022-09-10T17:05:36.041Z,98115.47
2022-09-10T17:08:02.582Z,98102.63
2022-09-10T17:10:28.685Z,98121.03
2022-09-10T17:12:54.806Z,98122.72
2022-09-10T17:15:20.946Z,98131.94
2022-09-10T17:17:49.453Z,98128.88
2022-09-10T17:20:15.561Z,98128.28
2022-09-10T17:22:41.666Z,98135.41
2022-09-10T17:25:07.763Z,98140.13
2022-09-10T17:27:33.843Z,98143.00
2022-09-10T17:29:59.955Z,98135.66
2022-09-10T17:32:26.044Z,98145.06
2022-09-10T17:34:52.120Z,98143.66
2022-09-10T17:37:18.228Z,98149.19
2022-09-10T17:39:44.361Z,98145.53
2022-09-10T17:42:10.473Z,98165.56
2022-09-10T17:44:36.583Z,98143.31
2022-09-10T17:47:02.664Z,98147.19
2022-09-10T17:49:28.762Z,98150.03
2022-09-10T17:51:54.899Z,98164.09
2022-09-10T17:54:20.986Z,98164.47
2022-09-10T17:56:47.073Z,98157.41
2022-09-10T17:59:13.239Z,98164.16
2022-09-10T18:01:39.420Z,98180.75
2022-09-10T18:04:05.562Z,98178.31
2022-09-10T18:06:31.666Z,98179.00
2022-09-10T18:08:57.785Z,98182.50
2022-09-10T18:11:23.865Z,98183.53
2022-09-10T18:13:50.028Z,98192.00
2022-09-10T18:16:16.225Z,98189.75
2022-09-10T18:18:42.331Z,98201.03
2022-09-10T18:21:08.541Z,98205.78
2022-09-10T18:23:34.778Z,98205.75
2022-09-10T18:26:00.886Z,98209.84
2022-09-10T18:28:27.114Z,98217.84
2022-09-10T18:30:53.283Z,98223.00
2022-09-10T18:33:19.428Z,98229.97
2022-09-10T18:35:45.843Z,98232.22
2022-09-10T18:38:12.057Z,98237.13
2022-09-10T18:40:38.136Z,98237.75
2022-09-10T18:43:04.301Z,98243.53
2022-09-10T18:45:30.439Z,98247.44
2022-09-10T18:47:56.544Z,98252.78
2022-09-10T18:50:22.642Z,98256.31
2022-09-10T18:52:48.729Z,98260.22
2022-09-10T18:55:14.822Z,98264.91
2022-09-10T18:57:40.933Z,98267.75
2022-09-10T19:00:07.030Z,98283.38
2022-09-10T19:02:33.197Z,98287.47
2022-09-10T19:05:14.727Z,98285.66
2022-09-10T19:07:40.838Z,98284.66
2022-09-10T19:10:07.148Z,98294.13
2022-09-10T19:12:33.357Z,98295.78
2022-09-10T19:14:59.455Z,98293.28
2022-09-10T19:17:25.565Z,98300.50
2022-09-10T19:19:51.669Z,98309.72
2022-09-10T19:22:17.769Z,98310.53
2022-09-10T19:24:54.604Z,98307.66
2022-09-10T19:27:21.614Z,98307.66
2022-09-10T19:29:48.184Z,98311.38
2022-09-10T19:32:14.302Z,98320.22
2022-09-10T19:34:40.376Z,98323.72
2022-09-10T19:37:06.857Z,98323.72
2022-09-10T19:39:32.981Z,98322.91
2022-09-10T19:41:59.134Z,98330.69
2022-09-10T19:44:25.228Z,98326.97
2022-09-10T19:46:51.323Z,98322.25
2022-09-10T19:49:17.435Z,98328.19
2022-09-10T19:51:43.570Z,98332.09
2022-09-10T19:54:09.798Z,98330.84
2022-09-10T19:56:35.890Z,98338.69
2022-09-10T19:59:01.989Z,98342.56
2022-09-10T20:01:28.105Z,98338.03
2022-09-10T20:03:54.218Z,98337.25
2022-09-10T20:06:20.333Z,98348.13
2022-09-10T20:08:46.415Z,98342.16
2022-09-10T20:11:12.513Z,98343.19
2022-09-10T20:13:38.656Z,98348.53
2022-09-10T20:16:04.770Z,98342.53
2022-09-10T20:18:30.934Z,98352.06
2022-09-10T20:20:57.093Z,98353.06
2022-09-10T20:23:23.178Z,98350.59
2022-09-10T20:25:49.274Z,98358.59
2022-09-10T20:28:15.390Z,98354.94
2022-09-10T20:30:41.491Z,98366.88
2022-09-10T20:33:07.603Z,98372.63
2022-09-10T20:35:34.194Z,98368.91
2022-09-10T20:38:00.433Z,98373.88
2022-09-10T20:40:26.526Z,98379.22
2022-09-10T20:42:53.120Z,98374.06
2022-09-10T20:45:19.226Z,98368.94
2022-09-10T20:47:45.336Z,98384.19
2022-09-10T20:50:11.580Z,98384.56
2022-09-10T20:52:37.676Z,98393.00
2022-09-10T20:55:03.770Z,98392.16
2022-09-10T20:57:29.864Z,98395.06
2022-09-10T20:59:55.942Z,98397.53
2022-09-10T21:02:22.082Z,98396.72
2022-09-10T21:04:48.225Z,98407.59
2022-09-10T21:07:14.314Z,98408.22
2022-09-10T21:09:40.408Z,98415.63
2022-09-10T21:12:06.525Z,98414.16
2022-09-10T21:14:32.614Z,98416.63
2022-09-10T21:16:58.701Z,98416.47
2022-09-10T21:19:24.803Z,98417.47
2022-09-10T21:21:50.889Z,98419.75
2022-09-10T21:24:16.981Z,98424.47
2022-09-10T21:26:43.094Z,98417.69
2022-09-10T21:29:09.192Z,98431.66
2022-09-10T21:31:35.289Z,98421.38
2022-09-10T21:34:03.409Z,98439.25
2022-09-10T21:36:29.753Z,98441.31
2022-09-10T21:38:55.850Z,98444.19
2022-09-10T21:41:21.977Z,98440.50
2022-09-10T21:43:48.068Z,98450.97
2022-09-10T21:46:14.168Z,98455.31
2022-09-10T21:48:40.361Z,98453.25
2022-09-10T21:51:06.550Z,98453.25
2022-09-10T21:53:32.645Z,98460.22
2022-09-10T21:55:59.023Z,98456.72
2022-09-10T21:58:25.131Z,98452.41
2022-09-10T22:00:51.227Z,98454.47
2022-09-10T22:03:17.329Z,98458.59
2022-09-10T22:05:43.408Z,98451.59
2022-09-10T22:08:09.513Z,98454.88
2022-09-10T22:10:35.634Z,98454.47
2022-09-10T22:13:01.744Z,98457.75
2022-09-10T22:15:27.881Z,98454.06
2022-09-10T22:17:54.300Z,98458.19
2022-09-10T22:20:20.402Z,98455.31
2022-09-10T22:22:46.490Z,98464.56
2022-09-10T22:25:12.588Z,98463.09
2022-09-10T22:27:38.691Z,98461.06
2022-09-10T22:30:04.799Z,98473.19
2022-09-10T22:32:30.907Z,98468.88
2022-09-10T22:34:57.008Z,98469.88
2022-09-10T22:37:23.114Z,98468.22
2022-09-10T22:39:49.599Z,98468.03
2022-09-10T22:42:15.737Z,98469.69
2022-09-10T22:44:41.826Z,98477.91
2022-09-10T22:47:07.965Z,98482.84
2022-09-10T22:49:34.046Z,98471.94
2022-09-10T22:52:00.142Z,98474.63
2022-09-10T22:54:26.265Z,98474.22
2022-09-10T22:56:52.383Z,98486.97
2022-09-10T22:59:18.470Z,98483.69
2022-09-10T23:01:44.624Z,98492.75
2022-09-10T23:04:10.761Z,98487.59
2022-09-10T23:06:36.836Z,98486.97
2022-09-10T23:09:02.945Z,98495.00
2022-09-10T23:11:29.032Z,98495.19
2022-09-10T23:13:55.126Z,98490.69
2022-09-10T23:16:21.324Z,98482.47
2022-09-10T23:18:47.444Z,98491.50
2022-09-10T23:21:13.534Z,98491.72
2022-09-10T23:23:39.683Z,98493.78
2022-09-10T23:26:05.763Z,98490.47
2022-09-10T23:28:31.856Z,98489.88
2022-09-10T23:30:58.004Z,98490.91
2022-09-10T23:33:24.171Z,98493.34
2022-09-10T23:35:50.261Z,98498.91
2022-09-10T23:38:16.366Z,98512.28
2022-09-10T23:40:42.445Z,98501.78
2022-09-10T23:43:08.541Z,98507.09
2022-09-10T23:45:35.143Z,98504.69
2022-09-10T23:48:01.231Z,98512.25
2022-09-10T23:50:27.358Z,98512.25
2022-09-10T23:52:53.490Z,98518.25
2022-09-10T23:55:19.625Z,98517.63
2022-09-10T23:57:45.736Z,98513.72
